Time;durP1;ratioP1;P1;durP2;ratioP2;P2;SDS_P1;SDS_P2;PMS_P1;PMS_P2;Temp;Humidity;BMP_temperature;BMP_pressure;BME280_temperature;BME280_humidity;BME280_pressure;Samples;Min_cycle;Max_cycle;Signal;HPM_P1;HPM_P2
2022/04/22 00:01:37;;;;;;;12.73;8.45;;;10.90;99.90;;;;;;5127673;27;20039;-89
2022/04/22 00:04:03;;;;;;;13.88;8.98;;;10.90;99.90;;;;;;5146552;27;20050;-89
2022/04/22 00:06:29;;;;;;;15.25;9.38;;;10.80;99.90;;;;;;5127980;27;20117;-90
2022/04/22 00:08:55;;;;;;;12.10;8.95;;;10.80;99.90;;;;;;5147951;27;20042;-89
2022/04/22 00:11:29;;;;;;;15.02;9.93;;;10.70;99.90;;;;;;5146662;27;20042;-88
2022/04/22 00:13:57;;;;;;;13.40;9.52;;;10.70;99.90;;;;;;5125259;27;20126;-87
2022/04/22 00:16:27;;;;;;;14.35;9.73;;;10.70;99.90;;;;;;5111283;27;20043;-90
2022/04/22 00:18:53;;;;;;;12.95;9.30;;;10.70;99.90;;;;;;5145535;27;20134;-88
2022/04/22 00:21:19;;;;;;;14.52;9.73;;;10.60;99.90;;;;;;5147607;27;20039;-88
2022/04/22 00:23:45;;;;;;;13.43;9.48;;;10.60;99.90;;;;;;5157699;27;20539;-89
2022/04/22 00:26:11;;;;;;;14.45;9.32;;;10.50;99.90;;;;;;5136837;27;20058;-91
2022/04/22 00:28:37;;;;;;;13.25;9.88;;;10.50;99.90;;;;;;5128307;27;20034;-88
2022/04/22 00:31:03;;;;;;;14.98;10.00;;;10.50;99.90;;;;;;5125605;27;20042;-90
2022/04/22 00:33:29;;;;;;;14.38;9.93;;;10.50;99.90;;;;;;5128713;27;20083;-89
2022/04/22 00:35:54;;;;;;;15.60;9.93;;;10.50;99.90;;;;;;5147664;27;20050;-88
2022/04/22 00:38:20;;;;;;;15.27;10.07;;;10.40;99.90;;;;;;5129929;27;20049;-89
2022/04/22 00:40:45;;;;;;;14.88;9.93;;;10.40;99.90;;;;;;5125737;27;20058;-90
2022/04/22 00:43:15;;;;;;;14.43;9.68;;;10.40;99.90;;;;;;5146400;27;20054;-89
2022/04/22 00:45:42;;;;;;;15.13;10.73;;;10.40;99.90;;;;;;5146479;27;20578;-88
2022/04/22 00:48:07;;;;;;;16.42;10.90;;;10.30;99.90;;;;;;5111054;27;20594;-89
2022/04/22 00:50:33;;;;;;;17.42;11.65;;;10.30;99.90;;;;;;5109743;27;20039;-88
2022/04/22 00:52:59;;;;;;;13.77;9.65;;;10.30;99.90;;;;;;5123569;27;20482;-88
2022/04/22 00:55:25;;;;;;;19.48;11.25;;;10.20;99.90;;;;;;5146426;27;20049;-89
2022/04/22 00:57:52;;;;;;;16.75;11.35;;;10.20;99.90;;;;;;5142539;27;20471;-90
2022/04/22 01:00:17;;;;;;;17.60;11.60;;;10.20;99.90;;;;;;5146317;27;20398;-88
2022/04/22 01:02:43;;;;;;;15.90;11.82;;;10.20;99.90;;;;;;5144648;27;20051;-86
2022/04/22 01:10:37;;;;;;;19.17;13.10;;;10.10;99.90;;;;;;5143410;27;20515;-89
2022/04/22 01:13:04;;;;;;;17.35;11.60;;;10.00;99.90;;;;;;5125898;27;20046;-89
2022/04/22 01:15:30;;;;;;;17.90;12.60;;;10.00;99.90;;;;;;5145239;27;20054;-88
2022/04/22 01:17:55;;;;;;;18.48;12.35;;;9.90;99.90;;;;;;5144441;27;20127;-86
2022/04/22 01:20:21;;;;;;;17.77;12.18;;;9.90;99.90;;;;;;5148187;27;20046;-87
2022/04/22 01:22:46;;;;;;;16.55;12.10;;;9.80;99.90;;;;;;5147102;27;20483;-89
2022/04/22 01:25:12;;;;;;;15.38;11.88;;;9.80;99.90;;;;;;5145196;27;20414;-88
2022/04/22 01:27:38;;;;;;;19.73;13.55;;;9.70;99.90;;;;;;5126185;27;20046;-87
2022/04/22 01:30:08;;;;;;;19.27;13.13;;;9.70;99.90;;;;;;5127366;27;20051;-89
2022/04/22 01:32:34;;;;;;;18.63;12.77;;;9.70;99.90;;;;;;5130327;27;20039;-87
2022/04/22 01:35:00;;;;;;;18.67;12.82;;;9.60;99.90;;;;;;5159742;27;20136;-88
2022/04/22 01:37:25;;;;;;;17.65;10.80;;;9.60;99.90;;;;;;5142478;27;20070;-87
2022/04/22 01:39:51;;;;;;;20.05;13.05;;;9.50;99.90;;;;;;5128225;27;20057;-87
2022/04/22 01:42:20;;;;;;;17.30;12.65;;;9.50;99.90;;;;;;5167203;27;20041;-87
2022/04/22 01:44:46;;;;;;;19.70;13.80;;;9.50;99.90;;;;;;5145170;27;20134;-88
2022/04/22 01:47:12;;;;;;;22.08;14.05;;;9.50;99.90;;;;;;5131563;27;20562;-88
2022/04/22 01:49:38;;;;;;;17.80;11.80;;;9.40;99.90;;;;;;5150653;27;20970;-89
2022/04/22 01:52:04;;;;;;;19.58;13.45;;;9.30;99.90;;;;;;5131839;27;20118;-88
2022/04/22 01:54:29;;;;;;;20.27;13.55;;;9.30;99.90;;;;;;5148908;27;20465;-87
2022/04/22 01:56:55;;;;;;;19.58;13.45;;;9.30;99.90;;;;;;5150934;27;20462;-87
2022/04/22 01:59:21;;;;;;;17.85;12.52;;;9.20;99.90;;;;;;5149540;27;20181;-88
2022/04/22 02:01:46;;;;;;;19.85;13.40;;;9.20;99.90;;;;;;5149049;27;20042;-87
2022/04/22 02:04:12;;;;;;;17.83;13.70;;;9.20;99.90;;;;;;5149726;27;20037;-87
2022/04/22 02:06:37;;;;;;;19.85;13.48;;;9.20;99.90;;;;;;5145698;27;20092;-88
2022/04/22 02:09:03;;;;;;;17.40;12.90;;;9.10;99.90;;;;;;5149384;27;20043;-87
2022/04/22 02:11:28;;;;;;;17.60;9.80;;;9.10;99.90;;;;;;5150176;27;20146;-88
2022/04/22 02:13:54;;;;;;;17.17;12.90;;;9.00;99.90;;;;;;5112926;27;20042;-88
2022/04/22 02:16:19;;;;;;;18.45;11.85;;;9.10;99.90;;;;;;5150166;27;20452;-90
2022/04/22 02:18:45;;;;;;;18.33;13.55;;;9.10;99.90;;;;;;5132024;27;20409;-86
2022/04/22 02:21:10;;;;;;;18.17;13.38;;;9.10;99.90;;;;;;5136891;27;20426;-89
2022/04/22 02:23:37;;;;;;;18.17;13.20;;;9.00;99.90;;;;;;5150705;27;20054;-89
2022/04/22 02:26:04;;;;;;;17.35;10.00;;;9.00;99.90;;;;;;5149681;27;20447;-88
2022/04/22 02:28:33;;;;;;;18.33;13.90;;;8.90;99.90;;;;;;5149892;27;20050;-89
2022/04/22 02:31:06;;;;;;;17.08;13.27;;;8.90;99.90;;;;;;5130243;27;20043;-88
2022/04/22 02:33:32;;;;;;;21.10;13.63;;;8.90;99.90;;;;;;5153022;27;20110;-88
2022/04/22 02:35:59;;;;;;;19.95;13.23;;;8.90;99.90;;;;;;5148519;27;20055;-88
2022/04/22 02:38:26;;;;;;;18.80;13.10;;;8.80;99.90;;;;;;5144278;27;20086;-87
2022/04/22 02:46:19;;;;;;;16.55;12.70;;;8.70;99.90;;;;;;5149106;27;20046;-88
2022/04/22 02:48:45;;;;;;;18.45;13.55;;;8.70;99.90;;;;;;5130384;27;20129;-89
2022/04/22 02:51:10;;;;;;;16.80;13.07;;;8.70;99.90;;;;;;5130653;27;20087;-88
2022/04/22 02:53:36;;;;;;;17.70;13.13;;;8.70;99.90;;;;;;5149752;27;20055;-89
2022/04/22 02:56:02;;;;;;;17.95;12.40;;;8.70;99.90;;;;;;5144785;27;20047;-90
2022/04/22 02:58:28;;;;;;;15.93;8.38;;;8.60;99.90;;;;;;5129329;27;20034;-88
2022/04/22 03:00:53;;;;;;;18.48;12.45;;;8.50;99.90;;;;;;5148574;27;20039;-89
2022/04/22 03:03:19;;;;;;;15.60;12.40;;;8.60;99.90;;;;;;5129743;27;20039;-89
2022/04/22 03:05:44;;;;;;;15.30;9.98;;;8.50;99.90;;;;;;5133621;27;20054;-89
2022/04/22 03:08:10;;;;;;;18.52;12.15;;;8.50;99.90;;;;;;5148916;27;20384;-88
2022/04/22 03:10:36;;;;;;;18.15;11.95;;;8.50;99.90;;;;;;5151538;27;20133;-89
2022/04/22 03:13:03;;;;;;;15.38;9.65;;;8.50;99.90;;;;;;5144693;27;20444;-88
2022/04/22 03:15:30;;;;;;;16.13;8.40;;;8.40;99.90;;;;;;5148220;27;20494;-88
2022/04/22 03:17:55;;;;;;;16.58;11.57;;;8.30;99.90;;;;;;5148294;27;20038;-87
2022/04/22 03:20:21;;;;;;;15.07;7.95;;;8.40;99.90;;;;;;5084911;27;20102;-89
2022/04/22 03:22:47;;;;;;;17.17;10.48;;;8.30;99.90;;;;;;5129651;27;20046;-90
2022/04/22 03:25:13;;;;;;;16.98;8.75;;;8.20;99.90;;;;;;5129613;27;20543;-88
2022/04/22 03:27:38;;;;;;;15.95;9.63;;;8.30;99.90;;;;;;5148999;27;20035;-87
2022/04/22 03:30:04;;;;;;;15.25;9.05;;;8.20;99.90;;;;;;5130989;27;20039;-88
2022/04/22 03:32:30;;;;;;;13.25;10.68;;;8.20;99.90;;;;;;5129088;27;20070;-90
2022/04/22 03:34:56;;;;;;;14.10;10.80;;;8.20;99.90;;;;;;5147551;27;20379;-89
2022/04/22 03:37:21;;;;;;;17.10;11.07;;;8.20;99.90;;;;;;5113006;27;20134;-88
2022/04/22 03:39:47;;;;;;;13.38;7.18;;;8.20;99.90;;;;;;5128690;27;20050;-89
2022/04/22 03:42:13;;;;;;;15.27;7.63;;;8.10;99.90;;;;;;5148535;27;20080;-87
2022/04/22 03:44:39;;;;;;;13.35;7.57;;;8.10;99.90;;;;;;5148256;27;20053;-88
2022/04/22 03:47:07;;;;;;;14.48;9.88;;;8.10;99.90;;;;;;5127848;27;20043;-88
2022/04/22 03:49:33;;;;;;;15.40;9.80;;;8.10;99.90;;;;;;5148180;27;20049;-91
2022/04/22 03:51:59;;;;;;;13.80;8.85;;;8.10;99.90;;;;;;5128974;27;20071;-88
2022/04/22 03:54:25;;;;;;;14.23;9.38;;;8.10;99.90;;;;;;5146765;27;20042;-87
2022/04/22 03:59:35;;;;;;;11.68;5.25;;;8.00;99.90;;;;;;5149819;27;20042;-88
2022/04/22 04:02:04;;;;;;;12.57;8.73;;;8.00;99.90;;;;;;5128020;27;20043;-88
2022/04/22 04:04:30;;;;;;;13.77;8.75;;;8.00;99.90;;;;;;5127267;27;20167;-89
2022/04/22 04:06:55;;;;;;;12.68;8.32;;;8.00;99.90;;;;;;5128697;27;20035;-88
2022/04/22 04:17:36;;;;;;;12.45;6.45;;;7.90;99.90;;;;;;5156918;27;20070;-89
2022/04/22 04:25:32;;;;;;;11.50;7.80;;;7.90;99.90;;;;;;5132196;27;20045;-88
2022/04/22 04:27:57;;;;;;;12.68;8.20;;;7.90;99.90;;;;;;5148402;27;20489;-89
2022/04/22 04:30:23;;;;;;;11.38;5.65;;;7.90;99.90;;;;;;5134141;27;20515;-90
2022/04/22 04:32:49;;;;;;;10.35;6.03;;;7.90;99.90;;;;;;5164836;27;20118;-87
2022/04/22 04:35:15;;;;;;;9.65;5.47;;;7.80;99.90;;;;;;5135243;27;20259;-89
2022/04/22 04:37:41;;;;;;;12.15;5.30;;;7.80;99.90;;;;;;5156697;27;20038;-88
2022/04/22 04:40:08;;;;;;;10.07;5.70;;;7.70;99.90;;;;;;5168822;27;20018;-91
2022/04/22 04:42:34;;;;;;;12.18;7.22;;;7.70;99.90;;;;;;5134145;27;20094;-89
2022/04/22 04:44:59;;;;;;;12.55;7.07;;;7.80;99.90;;;;;;5128878;27;20043;-89
2022/04/22 04:47:25;;;;;;;11.65;5.35;;;7.80;99.90;;;;;;5114130;27;20038;-88
2022/04/22 04:49:50;;;;;;;12.85;6.85;;;7.80;99.90;;;;;;5146272;27;20042;-90
2022/04/22 04:52:16;;;;;;;11.38;7.22;;;7.80;99.90;;;;;;5110048;27;20051;-87
2022/04/22 04:54:41;;;;;;;12.32;5.43;;;7.90;99.90;;;;;;5127153;27;20051;-90
2022/04/22 04:57:07;;;;;;;10.43;4.72;;;7.80;99.90;;;;;;5146742;27;20122;-88
2022/04/22 04:59:33;;;;;;;10.55;5.47;;;7.80;99.90;;;;;;5128428;27;20042;-88
2022/04/22 05:01:59;;;;;;;11.38;5.93;;;7.80;99.90;;;;;;5146540;27;20050;-88
2022/04/22 05:04:24;;;;;;;10.27;5.43;;;7.80;99.90;;;;;;5147874;27;20054;-89
2022/04/22 05:06:50;;;;;;;11.65;5.93;;;7.80;99.90;;;;;;5146616;27;20397;-89
2022/04/22 05:09:15;;;;;;;10.63;5.68;;;7.90;99.90;;;;;;5146662;27;20046;-87
2022/04/22 05:11:41;;;;;;;12.70;7.00;;;7.90;99.90;;;;;;5145593;27;20042;-91
2022/04/22 05:14:07;;;;;;;11.32;6.75;;;7.90;99.90;;;;;;5151613;27;20045;-92
2022/04/22 05:16:33;;;;;;;10.45;5.35;;;8.00;99.90;;;;;;5129093;27;20026;-89
2022/04/22 05:18:59;;;;;;;11.75;7.00;;;8.00;99.90;;;;;;5132741;27;20039;-90
2022/04/22 05:21:24;;;;;;;11.18;6.72;;;8.10;99.90;;;;;;5149849;27;20038;-89
2022/04/22 05:23:50;;;;;;;9.70;5.10;;;8.10;99.90;;;;;;5149850;27;20043;-90
2022/04/22 05:26:15;;;;;;;12.35;6.05;;;8.10;99.90;;;;;;5151972;27;20050;-93
2022/04/22 05:28:41;;;;;;;10.73;6.70;;;8.10;99.90;;;;;;5138414;27;20050;-89
2022/04/22 05:33:51;;;;;;;12.00;5.68;;;8.30;99.90;;;;;;5137401;27;20054;-89
2022/04/22 05:36:18;;;;;;;10.00;5.47;;;8.30;99.90;;;;;;5138627;27;20046;-93
2022/04/22 05:38:44;;;;;;;10.63;5.10;;;8.30;99.90;;;;;;5159670;27;20038;-95
2022/04/22 05:41:10;;;;;;;9.20;5.10;;;8.30;99.90;;;;;;5157387;27;20030;-93
2022/04/22 05:43:37;;;;;;;10.15;6.45;;;8.40;99.90;;;;;;5159132;27;20118;-95
2022/04/22 05:46:02;;;;;;;11.02;7.00;;;8.50;99.90;;;;;;5140131;27;20042;-95
2022/04/22 05:48:28;;;;;;;11.88;6.53;;;8.50;99.90;;;;;;5137633;27;20069;-93
2022/04/22 05:50:54;;;;;;;10.43;5.20;;;8.60;99.90;;;;;;5158316;27;20123;-92
2022/04/22 05:53:19;;;;;;;11.63;4.68;;;8.60;99.90;;;;;;5159856;27;20409;-92
2022/04/22 05:55:46;;;;;;;9.65;6.10;;;8.60;99.90;;;;;;5122184;27;20062;-94
2022/04/22 05:58:11;;;;;;;9.85;5.20;;;8.70;99.90;;;;;;5158100;27;20050;-92
2022/04/22 06:00:39;;;;;;;9.77;4.68;;;8.70;99.90;;;;;;5160512;27;20095;-93
2022/04/22 06:03:06;;;;;;;10.10;6.03;;;8.70;99.90;;;;;;5157837;27;20474;-94
2022/04/22 06:05:32;;;;;;;11.35;6.32;;;8.90;99.90;;;;;;5137217;27;20570;-91
2022/04/22 06:10:53;;;;;;;9.52;5.80;;;9.00;99.90;;;;;;5163459;27;20043;-93
2022/04/22 06:13:18;;;;;;;11.02;6.10;;;9.10;99.90;;;;;;5174368;27;20047;-92
2022/04/22 06:15:44;;;;;;;8.25;4.75;;;9.20;99.90;;;;;;5140474;27;20075;-95
2022/04/22 06:18:09;;;;;;;10.20;6.05;;;9.20;99.90;;;;;;5149047;27;20050;-90
2022/04/22 06:20:35;;;;;;;9.88;6.00;;;9.30;99.90;;;;;;5128011;27;20459;-91
2022/04/22 06:23:01;;;;;;;10.90;6.45;;;9.40;99.90;;;;;;5149655;27;20283;-91
2022/04/22 06:25:28;;;;;;;10.05;6.00;;;9.50;99.90;;;;;;5151222;27;20300;-93
2022/04/22 06:27:54;;;;;;;9.38;6.10;;;9.50;99.90;;;;;;5150001;27;20433;-90
2022/04/22 06:30:24;;;;;;;11.48;6.53;;;9.60;99.90;;;;;;5135359;27;20511;-90
2022/04/22 06:32:54;;;;;;;10.30;6.30;;;9.60;99.90;;;;;;5151359;27;20074;-89
2022/04/22 06:35:21;;;;;;;10.27;6.25;;;9.70;99.90;;;;;;5152317;27;20034;-91
2022/04/22 06:37:49;;;;;;;11.00;6.47;;;9.80;99.90;;;;;;5157980;27;20387;-92
2022/04/22 06:45:46;;;;;;;10.68;5.88;;;9.90;99.90;;;;;;5138016;27;20082;-91
2022/04/22 06:48:16;;;;;;;10.65;6.53;;;10.00;99.90;;;;;;5150755;27;20026;-90
2022/04/22 06:50:44;;;;;;;9.50;6.40;;;10.00;99.90;;;;;;5149217;27;20035;-89
2022/04/22 06:53:11;;;;;;;10.48;5.95;;;10.10;99.90;;;;;;5153146;27;20578;-88
2022/04/22 06:55:38;;;;;;;9.43;5.85;;;10.20;99.90;;;;;;5115174;27;20134;-91
2022/04/22 06:58:09;;;;;;;8.75;5.65;;;10.20;99.90;;;;;;5131325;27;20129;-91
2022/04/22 07:00:35;;;;;;;9.45;5.88;;;10.30;99.90;;;;;;5146501;27;20414;-87
2022/04/22 07:03:01;;;;;;;10.00;6.15;;;10.40;99.90;;;;;;5111810;27;20186;-89
2022/04/22 07:05:27;;;;;;;11.18;6.22;;;10.40;99.90;;;;;;5127236;27;20042;-90
2022/04/22 07:07:53;;;;;;;9.57;6.20;;;10.50;99.90;;;;;;5113936;27;20081;-90
2022/04/22 07:10:19;;;;;;;11.80;5.53;;;10.60;99.90;;;;;;5129745;27;20390;-87
2022/04/22 07:12:45;;;;;;;9.45;5.80;;;10.70;99.90;;;;;;5114613;27;20099;-91
2022/04/22 07:15:11;;;;;;;9.13;5.75;;;10.70;99.90;;;;;;5136980;27;20038;-92
2022/04/22 07:17:38;;;;;;;9.15;5.53;;;10.80;99.90;;;;;;5154209;27;20049;-92
2022/04/22 07:20:09;;;;;;;10.82;5.72;;;10.80;99.90;;;;;;5137920;27;20133;-91
2022/04/22 07:22:36;;;;;;;;;;;10.80;99.90;;;;;;5137005;27;20042;-88
2022/04/22 07:25:02;;;;;;;9.80;5.20;;;10.80;99.90;;;;;;5168256;27;19983;-92
2022/04/22 07:27:28;;;;;;;10.00;5.32;;;10.90;99.90;;;;;;5172503;27;20038;-90
2022/04/22 07:29:55;;;;;;;9.70;5.53;;;11.00;99.90;;;;;;5159175;27;20062;-92
2022/04/22 07:32:21;;;;;;;9.68;5.57;;;11.10;99.90;;;;;;5154348;27;20021;-92
2022/04/22 07:34:47;;;;;;;8.70;5.55;;;11.20;99.90;;;;;;5134065;27;20046;-92
2022/04/22 07:37:13;;;;;;;10.85;5.80;;;11.30;99.90;;;;;;5146698;27;20046;-90
2022/04/22 07:39:39;;;;;;;9.35;5.15;;;11.30;99.90;;;;;;5139181;27;20046;-92
2022/04/22 07:42:07;;;;;;;9.38;5.20;;;11.40;99.90;;;;;;5142877;27;20037;-91
2022/04/22 07:47:19;;;;;;;10.13;5.68;;;11.50;99.90;;;;;;5150115;27;20094;-89
2022/04/22 07:49:45;;;;;;;9.68;4.90;;;11.50;99.90;;;;;;5134955;27;20062;-92
2022/04/22 07:52:10;;;;;;;9.75;5.00;;;11.60;99.90;;;;;;5154861;27;20034;-95
2022/04/22 07:54:36;;;;;;;7.70;4.57;;;11.70;99.90;;;;;;5153546;27;20099;-91
2022/04/22 07:57:02;;;;;;;10.48;5.13;;;11.80;99.90;;;;;;5153610;27;20071;-94
2022/04/22 07:59:28;;;;;;;8.70;4.93;;;11.80;99.90;;;;;;5130880;27;20038;-94
2022/04/22 08:01:54;;;;;;;8.40;4.57;;;11.80;99.90;;;;;;5135627;27;20041;-89
2022/04/22 08:04:19;;;;;;;8.07;3.80;;;11.90;99.90;;;;;;5152642;27;20099;-93
2022/04/22 08:06:45;;;;;;;7.70;4.18;;;11.90;99.90;;;;;;5169127;27;20039;-91
2022/04/22 08:09:11;;;;;;;8.27;4.28;;;12.00;99.90;;;;;;5141370;27;20042;-93
2022/04/22 08:11:36;;;;;;;8.80;4.03;;;12.00;99.90;;;;;;5157136;27;20057;-94
2022/04/22 08:14:02;;;;;;;8.68;4.40;;;12.10;99.90;;;;;;5142428;27;20042;-92
2022/04/22 08:16:28;;;;;;;11.75;4.00;;;12.10;99.90;;;;;;5159940;27;20038;-93
2022/04/22 08:18:53;;;;;;;9.20;3.85;;;12.20;99.90;;;;;;5140071;27;20041;-91
2022/04/22 08:21:19;;;;;;;7.00;3.60;;;12.30;99.90;;;;;;5178478;27;20070;-94
2022/04/22 08:23:46;;;;;;;7.78;3.45;;;12.40;99.90;;;;;;5178541;27;20053;-89
2022/04/22 08:26:12;;;;;;;7.35;3.38;;;12.50;99.90;;;;;;5162761;27;20043;-93
2022/04/22 08:28:38;;;;;;;8.07;3.50;;;12.60;99.90;;;;;;5153606;27;20463;-94
2022/04/22 08:31:04;;;;;;;6.70;3.42;;;12.70;99.90;;;;;;5153747;27;20087;-92
2022/04/22 08:33:29;;;;;;;5.88;3.03;;;12.80;99.90;;;;;;5158463;27;20674;-93
2022/04/22 08:35:56;;;;;;;8.13;3.67;;;12.90;99.90;;;;;;5160386;27;20042;-91
2022/04/22 08:38:23;;;;;;;7.03;3.30;;;13.10;99.90;;;;;;5177877;27;20173;-92
2022/04/22 08:40:48;;;;;;;6.82;3.33;;;13.10;99.90;;;;;;5177111;27;20102;-93
2022/04/22 08:43:15;;;;;;;6.95;3.28;;;13.20;99.90;;;;;;5177690;27;20486;-90
2022/04/22 08:45:40;;;;;;;9.10;3.45;;;13.20;99.90;;;;;;5178593;27;20095;-95
2022/04/22 08:50:53;;;;;;;7.20;3.42;;;13.40;99.90;;;;;;5178283;27;20106;-93
2022/04/22 08:53:23;;;;;;;8.13;3.85;;;13.40;99.90;;;;;;5180348;27;20050;-91
2022/04/22 08:55:55;;;;;;;7.30;3.03;;;13.50;99.90;;;;;;5141003;27;20042;-91
2022/04/22 08:58:23;;;;;;;7.43;3.20;;;13.50;99.90;;;;;;5176400;27;20053;-93
2022/04/22 09:00:51;;;;;;;6.75;3.40;;;13.50;99.90;;;;;;5155004;27;20049;-90
2022/04/22 09:03:16;;;;;;;6.88;3.05;;;13.60;99.90;;;;;;5176230;27;20042;-92
2022/04/22 09:05:42;;;;;;;6.68;3.25;;;13.60;99.90;;;;;;5176872;27;20167;-94
2022/04/22 09:08:09;;;;;;;6.70;3.15;;;13.70;99.90;;;;;;5178716;27;20049;-93
2022/04/22 09:10:38;;;;;;;7.63;3.60;;;13.90;99.90;;;;;;5132805;22;20048;-95
2022/04/22 09:13:09;;;;;;;8.32;3.60;;;14.00;99.90;;;;;;5074489;28;20097;-89
2022/04/22 09:15:36;;;;;;;8.52;3.15;;;14.10;99.90;;;;;;5075038;28;20058;-90
2022/04/22 09:18:12;;;;;;;7.18;3.08;;;14.10;99.90;;;;;;5073819;28;20048;-91
2022/04/22 09:20:39;;;;;;;6.55;3.17;;;14.20;99.90;;;;;;5075157;28;20048;-93
2022/04/22 09:23:34;;;;;;;5.97;3.10;;;14.30;99.90;;;;;;5078147;28;20048;-92
2022/04/22 09:26:02;;;;;;;7.68;3.05;;;14.50;99.90;;;;;;5090746;28;20040;-93
2022/04/22 09:28:28;;;;;;;6.60;3.08;;;14.50;99.90;;;;;;5088898;28;20036;-89
2022/04/22 09:31:02;;;;;;;7.40;3.25;;;14.40;99.90;;;;;;5074303;28;20044;-94
2022/04/22 09:33:47;;;;;;;7.43;3.20;;;14.50;99.90;;;;;;5088669;28;20123;-90
2022/04/22 09:45:05;;;;;;;7.28;3.38;;;14.90;99.90;;;;;;5088992;28;20365;-91
2022/04/22 09:47:32;;;;;;;7.30;3.17;;;15.00;99.90;;;;;;5058543;28;20039;-88
2022/04/22 09:50:11;;;;;;;6.85;2.72;;;15.10;99.90;;;;;;5056471;28;20060;-93
2022/04/22 09:52:46;;;;;;;6.85;3.10;;;15.20;97.30;;;;;;5049738;28;20041;-89
2022/04/22 09:55:16;;;;;;;9.57;3.08;;;15.20;97.20;;;;;;5051050;28;20033;-91
2022/04/22 09:57:59;;;;;;;7.45;2.97;;;15.20;98.60;;;;;;5048782;28;20048;-92
2022/04/22 10:00:30;;;;;;;8.60;3.38;;;15.30;93.50;;;;;;5071350;28;20118;-91
2022/04/22 10:02:56;;;;;;;8.25;3.05;;;15.40;96.50;;;;;;5094931;28;20036;-90
2022/04/22 10:05:32;;;;;;;7.78;3.28;;;15.50;95.90;;;;;;5090544;28;20040;-92
2022/04/22 10:08:02;;;;;;;6.75;3.20;;;15.50;94.70;;;;;;5088011;28;20052;-93
2022/04/22 10:10:37;;;;;;;8.00;3.17;;;15.50;95.70;;;;;;5074530;28;20786;-91
2022/04/22 10:13:04;;;;;;;9.13;3.78;;;15.50;93.20;;;;;;5093827;28;20481;-92
2022/04/22 10:15:34;;;;;;;7.78;3.35;;;15.50;95.60;;;;;;5090333;28;20044;-92
2022/04/22 10:18:01;;;;;;;7.50;3.55;;;15.60;95.80;;;;;;5074006;28;20045;-90
2022/04/22 10:20:27;;;;;;;8.13;3.58;;;15.60;95.90;;;;;;5075926;28;20557;-92
2022/04/22 10:22:53;;;;;;;8.35;3.30;;;15.80;95.00;;;;;;5094028;28;20036;-93
2022/04/22 10:25:19;;;;;;;5.90;3.20;;;15.90;95.80;;;;;;5100935;28;20051;-90
2022/04/22 10:27:46;;;;;;;7.72;3.30;;;15.90;94.40;;;;;;5115708;28;20048;-91
2022/04/22 10:30:13;;;;;;;7.30;3.40;;;15.90;96.20;;;;;;5100503;28;20184;-92
2022/04/22 10:32:41;;;;;;;7.25;3.80;;;16.00;96.00;;;;;;5092591;28;20035;-90
2022/04/22 10:35:08;;;;;;;6.93;3.75;;;16.00;96.50;;;;;;5100429;28;20037;-90
2022/04/22 10:37:38;;;;;;;7.45;3.70;;;16.10;96.50;;;;;;5080752;28;20082;-92
2022/04/22 10:40:04;;;;;;;7.32;3.53;;;16.10;96.60;;;;;;5086424;28;20067;-89
2022/04/22 10:42:35;;;;;;;7.32;3.80;;;16.20;97.40;;;;;;5087779;28;20499;-92
2022/04/22 10:47:53;;;;;;;7.00;3.42;;;16.30;95.80;;;;;;5089228;28;20056;-92
2022/04/22 10:50:27;;;;;;;7.88;4.05;;;16.30;94.40;;;;;;5094075;28;20076;-92
2022/04/22 10:53:03;;;;;;;9.57;4.45;;;16.30;92.90;;;;;;5087573;28;20042;-92
2022/04/22 10:55:47;;;;;;;8.00;3.97;;;16.30;95.20;;;;;;5088661;28;20047;-91
2022/04/22 10:58:12;;;;;;;7.95;4.03;;;16.40;94.60;;;;;;5093030;28;20040;-93
2022/04/22 11:00:41;;;;;;;6.88;3.45;;;16.40;95.10;;;;;;5092277;28;20074;-92
2022/04/22 11:03:19;;;;;;;8.10;4.28;;;16.60;95.30;;;;;;5078068;28;20052;-91
2022/04/22 11:05:52;;;;;;;9.98;4.38;;;16.60;93.20;;;;;;5072616;28;20082;-92
2022/04/22 11:08:28;;;;;;;9.02;4.47;;;16.70;94.80;;;;;;5089164;28;20400;-92
2022/04/22 11:10:54;;;;;;;7.05;3.35;;;16.70;95.60;;;;;;5091852;28;20052;-92
2022/04/22 11:13:30;;;;;;;8.02;4.07;;;16.90;93.60;;;;;;5057885;28;20059;-92
2022/04/22 11:16:05;;;;;;;8.15;4.20;;;16.90;92.80;;;;;;5068709;28;20072;-88
2022/04/22 11:18:31;;;;;;;8.27;4.20;;;16.90;87.50;;;;;;5085322;28;20043;-93
2022/04/22 11:21:31;;;;;;;9.32;4.38;;;16.90;91.90;;;;;;5093317;28;20039;-93
2022/04/22 11:23:57;;;;;;;8.15;4.22;;;16.90;91.30;;;;;;5078874;28;20647;-92
2022/04/22 11:26:24;;;;;;;9.13;4.20;;;16.90;92.50;;;;;;5086840;28;20051;-88
2022/04/22 11:28:50;;;;;;;9.10;3.90;;;17.00;93.80;;;;;;5073243;28;20062;-91
2022/04/22 11:31:18;;;;;;;8.18;4.10;;;17.10;93.00;;;;;;5071724;28;20053;-93
2022/04/22 11:33:52;;;;;;;8.60;4.15;;;17.10;92.20;;;;;;5072910;28;20048;-93
2022/04/22 11:36:17;;;;;;;8.65;4.60;;;17.20;88.20;;;;;;5072657;28;20048;-90
2022/04/22 11:38:51;;;;;;;8.93;4.00;;;17.20;90.00;;;;;;5090809;28;20400;-91
2022/04/22 11:41:17;;;;;;;9.90;4.45;;;17.20;90.80;;;;;;5089654;28;20408;-92
2022/04/22 11:43:43;;;;;;;8.30;4.30;;;17.30;90.90;;;;;;5092934;28;20044;-90
2022/04/22 11:46:12;;;;;;;10.13;4.40;;;17.20;87.90;;;;;;5074256;28;20055;-90
2022/04/22 11:48:50;;;;;;;8.38;4.20;;;17.30;89.00;;;;;;5092435;28;20622;-93
2022/04/22 11:51:19;;;;;;;7.72;4.13;;;17.30;90.40;;;;;;5080235;28;20401;-92
2022/04/22 11:53:46;;;;;;;8.20;4.10;;;17.30;88.30;;;;;;5074633;28;20040;-91
2022/04/22 11:56:17;;;;;;;8.77;4.10;;;17.40;89.80;;;;;;5087209;28;20503;-90
2022/04/22 11:58:43;;;;;;;7.93;4.40;;;17.40;86.20;;;;;;5094627;28;20090;-93
2022/04/22 12:06:39;;;;;;;10.55;4.32;;;17.50;85.80;;;;;;5099325;28;20095;-91
2022/04/22 12:09:06;;;;;;;7.63;4.38;;;17.40;83.30;;;;;;5108001;28;20036;-92
2022/04/22 12:11:43;;;;;;;9.30;4.40;;;17.40;83.50;;;;;;5081295;28;20404;-92
2022/04/22 12:14:22;;;;;;;8.93;4.82;;;17.50;83.40;;;;;;5105677;28;20114;-92
2022/04/22 12:17:00;;;;;;;8.45;4.57;;;17.60;79.40;;;;;;5089057;28;20091;-92
2022/04/22 12:19:27;;;;;;;9.88;4.80;;;17.60;83.00;;;;;;5086789;28;20076;-92
2022/04/22 12:21:52;;;;;;;8.20;4.60;;;17.70;84.80;;;;;;5088937;28;20052;-93
2022/04/22 12:24:19;;;;;;;8.15;5.00;;;17.60;85.10;;;;;;5085125;28;20032;-92
2022/04/22 12:26:45;;;;;;;8.60;4.32;;;17.70;86.20;;;;;;5092316;28;20486;-91
2022/04/22 12:29:24;;;;;;;12.38;4.80;;;17.70;87.10;;;;;;5092776;28;20072;-94
2022/04/22 12:31:51;;;;;;;10.07;4.85;;;17.80;79.90;;;;;;5093692;28;20040;-90
2022/04/22 12:34:32;;;;;;;8.73;5.18;;;17.80;79.50;;;;;;5092835;28;20076;-94
2022/04/22 12:37:02;;;;;;;;;;;17.80;81.00;;;;;;5093367;28;20052;-87
2022/04/22 12:39:43;;;;;;;9.40;5.05;;;17.80;80.80;;;;;;5072762;28;19920;-90
2022/04/22 12:42:15;;;;;;;9.90;5.72;;;18.10;84.20;;;;;;5054608;28;20085;-92
2022/04/22 12:52:07;;;;;;;9.40;5.70;;;18.30;76.30;;;;;;5072802;28;20067;-94
2022/04/22 12:52:56;;;;;;;9.68;5.57;;;18.60;80.10;;;;;;5072239;28;20098;-94
2022/04/22 12:55:21;;;;;;;11.15;6.40;;;18.50;80.30;;;;;;5073090;28;20052;-95
2022/04/22 12:57:58;;;;;;;10.82;6.55;;;18.40;78.70;;;;;;5074658;28;20044;-92
2022/04/22 13:00:25;;;;;;;10.10;6.82;;;18.30;77.40;;;;;;5073696;28;20040;-93
2022/04/22 13:02:51;;;;;;;10.65;6.38;;;18.20;78.80;;;;;;5071930;28;20055;-94
2022/04/22 13:05:22;;;;;;;10.60;7.10;;;18.20;80.10;;;;;;5072966;28;20459;-93
2022/04/22 13:07:51;;;;;;;9.95;6.65;;;18.30;78.90;;;;;;5071249;28;20052;-93
2022/04/22 13:10:22;;;;;;;10.55;7.20;;;18.40;77.20;;;;;;5073271;28;20049;-93
2022/04/22 13:12:48;;;;;;;9.40;6.63;;;18.50;78.30;;;;;;5072175;28;20493;-93
2022/04/22 13:15:19;;;;;;;10.45;6.53;;;18.70;78.60;;;;;;5074863;28;20075;-93
2022/04/22 13:17:49;;;;;;;9.98;6.63;;;18.70;79.80;;;;;;5072741;28;20052;-94
2022/04/22 13:20:17;;;;;;;9.40;6.32;;;18.70;76.40;;;;;;5091848;28;20036;-94
2022/04/22 13:22:43;;;;;;;10.02;6.30;;;18.70;79.40;;;;;;5093947;28;20058;-95
2022/04/22 13:25:10;;;;;;;11.05;7.10;;;18.60;81.60;;;;;;5094815;28;20044;-91
2022/04/22 13:27:40;;;;;;;10.82;7.32;;;18.60;81.20;;;;;;5093180;28;20134;-90
2022/04/22 13:30:07;;;;;;;10.85;7.20;;;18.60;78.50;;;;;;5092699;28;20047;-94
2022/04/22 13:32:33;;;;;;;10.32;7.15;;;18.60;77.50;;;;;;5092823;28;20063;-91
2022/04/22 13:34:58;;;;;;;10.30;7.07;;;18.60;78.80;;;;;;5092625;28;20048;-95
2022/04/22 13:37:24;;;;;;;10.50;7.50;;;18.50;80.50;;;;;;5096475;28;20040;-91
2022/04/22 13:39:50;;;;;;;11.75;7.80;;;18.50;80.30;;;;;;5104338;28;20051;-94
2022/04/22 13:42:18;;;;;;;12.50;8.13;;;18.40;83.60;;;;;;5117936;27;20058;-92
2022/04/22 13:52:57;;;;;;;10.65;6.95;;;18.70;82.70;;;;;;5073324;28;20053;-96
2022/04/22 13:55:23;;;;;;;11.02;7.25;;;18.70;83.20;;;;;;5072027;28;20044;-91
2022/04/22 13:57:48;;;;;;;11.60;7.18;;;18.60;84.50;;;;;;5059515;28;20095;-93
2022/04/22 14:00:14;;;;;;;9.70;6.93;;;18.50;83.90;;;;;;5060499;28;20401;-93